Airfield :
LOGIN :

Register | Disclaimer

   EN    FR    IT 

 










Legend :    VFR   Marginal VFR   IFR   Intensive IFR   Very Intensive IFR
Visi :
Ceiling :
>= 8 km
>= 3000ft
5 to 8 km
1000 to 3000 ft
1500m to 5 km
500 to 1000 ft
800 to 1500m
200 to 500 ft
< 800m
< 200 ft
Symbols :   Thunderstorms  Fog  Heavy snow  Heavy precipitations  Wind > 20 kt
SIGMETs :     Misc.  Thunderstorms  Icing  Turbulence  Mountain Waves  Volcanic Ashes







- Airport Elevation : 1860 ft
- IATA code : GRX


LEGR - Granada

CURRENT METAR :
  • 160530Z 12004KT 090V160 9999 SCT110 06/02 Q1023

EXPIRED METARs :
  • 160500Z 15003KT 100V170 9999 SCT110 05/02 Q1023
  • 160430Z AUTO 15003KT 120V190 9999 NCD 04/02 Q1023
  • 160400Z AUTO 15003KT 9999 NCD 04/02 Q1023
  • 160330Z AUTO 14004KT 9999 NCD 04/02 Q1023
  • 160300Z AUTO 15003KT 9999 NCD 05/03 Q1023

TAF TAF LEGR
Valid from the 16 at 03:00 until the 17 at 03:00 UTC


160200Z 1603/1703 VRB02KT CAVOK TX19/1615Z TN01/1607Z
TEMPO 1615/1619 16012KT
No reported NOTAMs for that airfield.



MET'MAP, your aeronautical weather chart ! - Copyright ORBIFLY December 2007 - Disclaimer

ORBIFLY MET'MAP TEAM :

Programming & Development : Alexandra Zaïnal
Concept & Development : Baudouin d'Aumeries
Co-Development & Prog : Marc-Olivier Méhu
Technical & hardware support : Manuel Goepfert

Contact : metmap@orbifly.com




SOURCES & CREDITS :

   NOAA